Accueil
METAR-TAF:

METAR-TAF

Aéroports :

Resolute, Nunavut, Canada

latitude: 74-43N, longitude: 094-59W, altitude: 67 m

Observation

Le bulletin a été fait il y a 19 minutes, à 15:00 UTC
Vent 7 kt de nord avec des rafales jusqu'à 15 kt, variant entre nord-ouest et est/nord-est
Température -9°C
Humidité 67%
Pression 1027 hPa
Visibilité: 24.1 km
Quelques nuages à une hauteur de 21000 ft

METAR: CYRB 191500Z 35007G15KT 320V060 15SM FEW210 M09/M14 A3032 RMK CI1 CI TR SLP279

Heure: 10:19 (15:19 UTC)

Prévision

Le bulletin a été fait il y a 1 heure et 48 minutes, à 13:31 UTC
Prévision valable du 19 à 13 UTC au 20 à 12 UTC
Vent 18 kt de nord-est
Visibilité: 10 km
Quelques nuages à une hauteur de 5000 ft
Nuages épars à une hauteur de 24000 ft
Evoluant progressivement
du 19 à 15 UTC au 19 à 17 UTC
Vent 10 kt de nord/nord-est

TAF: CYRB 191331Z 1913/2012 04018KT P6SM FEW050 SCT240 BECMG 1915/1917 02010KT RMK NXT FCST BY 191800Z

Observations et prévisions météorologiques de plus de 4000 aéroports (messages METAR et TAF).

Les stations disponibles sont représentées par des disques jaunes et rouges sur la carte.

Passer la souris dessus pour voir le nom de la station.

Cliquer dessus pour voir les observations et prévisions météorologiques.

Pour changer de carte: cliquez sur les boutons verts avec une croix noire pour zoomer, sur le bouton vert avec un tiret pour effectuer un zoom arrière, ou sur les flèches vertes pour les cartes adjacentes.


METAR-TAF: